Time;durP1;ratioP1;P1;durP2;ratioP2;P2;SDS_P1;SDS_P2;PMS_P1;PMS_P2;Temp;Humidity;BMP_temperature;BMP_pressure;BME280_temperature;BME280_humidity;BME280_pressure;Samples;Min_cycle;Max_cycle;Signal;HPM_P1;HPM_P2
2021/01/04 00:01:38;;;;;;;175.00;67.78;;;;;;;0.30;75.67;96914.81;1743728;81;25847;-83
2021/01/04 00:04:47;;;;;;;170.62;62.60;;;;;;;0.28;75.65;96915.45;1754210;81;25707;-83
2021/01/04 00:07:48;;;;;;;171.50;64.75;;;;;;;0.25;75.63;96916.27;1744338;81;25508;-83
2021/01/04 00:10:36;;;;;;;162.53;64.35;;;;;;;0.20;75.59;96918.58;1745367;81;25793;-82
2021/01/04 00:13:35;;;;;;;163.77;65.32;;;;;;;0.10;75.62;96916.55;1736712;81;27572;-83
2021/01/04 00:16:38;;;;;;;148.70;59.77;;;;;;;0.05;75.84;96910.38;1761175;79;25774;-83
2021/01/04 00:19:10;;;;;;;131.12;53.17;;;;;;;0.09;75.99;96910.41;1745949;81;25724;-83
2021/01/04 00:22:29;;;;;;;133.05;55.55;;;;;;;0.11;76.10;96915.06;1730514;81;25803;-82
2021/01/04 00:25:25;;;;;;;118.15;52.13;;;;;;;0.11;76.08;96915.06;1730910;81;25784;-82
2021/01/04 00:28:12;;;;;;;119.90;52.08;;;;;;;0.12;76.11;96928.64;1730899;81;27518;-82
2021/01/04 00:31:05;;;;;;;107.43;49.27;;;;;;;0.14;76.14;96929.31;1740557;81;25971;-82
2021/01/04 00:33:50;;;;;;;98.07;46.60;;;;;;;0.12;76.14;96923.33;1751281;81;25842;-82
2021/01/04 00:36:29;;;;;;;96.55;43.83;;;;;;;0.12;76.15;96921.20;1748610;81;25854;-83
2021/01/04 00:39:31;;;;;;;96.22;43.02;;;;;;;0.10;76.09;96927.99;1761225;81;26017;-83
2021/01/04 00:42:26;;;;;;;113.35;47.88;;;;;;;0.08;76.07;96927.31;1668332;84;28475;-82
2021/01/04 00:45:08;;;;;;;100.62;44.23;;;;;;;-0.05;76.06;96934.86;1692606;84;25764;-84
2021/01/04 00:48:22;;;;;;;94.07;41.10;;;;;;;-0.08;76.22;96942.63;1733988;81;25836;-83
2021/01/04 00:51:09;;;;;;;95.62;42.85;;;;;;;-0.06;76.30;96941.16;1782988;80;25823;-82
2021/01/04 00:53:44;;;;;;;136.80;53.52;;;;;;;-0.05;76.32;96938.84;1746440;80;25791;-82
2021/01/04 00:56:42;;;;;;;115.40;47.65;;;;;;;-0.07;76.35;96945.63;1755234;80;27514;-82
2021/01/04 00:59:24;;;;;;;124.22;51.90;;;;;;;-0.12;76.43;96936.49;1766161;80;25381;-83
2021/01/04 01:02:34;;;;;;;126.65;49.25;;;;;;;-0.09;76.67;96941.46;1759229;80;26047;-82
2021/01/04 01:05:09;;;;;;;112.90;48.60;;;;;;;-0.06;76.77;96937.17;1740455;81;26353;-82
2021/01/04 01:08:16;;;;;;;120.67;50.23;;;;;;;-0.02;76.87;96934.56;1768617;80;25932;-84
2021/01/04 01:11:01;;;;;;;122.92;47.13;;;;;;;-0.01;76.87;96940.20;1739993;80;28403;-82
2021/01/04 01:13:52;;;;;;;114.85;47.03;;;;;;;0.02;76.87;96941.20;1747690;80;25779;-84
2021/01/04 01:16:40;;;;;;;107.00;46.85;;;;;;;0.04;76.90;96939.72;1721403;82;25744;-83
2021/01/04 01:19:29;;;;;;;101.60;43.63;;;;;;;0.06;76.92;96940.39;1741116;80;26201;-81
2021/01/04 01:21:58;;;;;;;106.25;45.73;;;;;;;0.12;76.94;96940.58;1754253;80;25722;-82
2021/01/04 01:24:26;;;;;;;97.50;43.00;;;;;;;0.16;76.93;96933.98;1753360;80;27494;-83
2021/01/04 01:27:11;;;;;;;90.95;42.58;;;;;;;0.20;76.93;96931.36;1747770;80;25696;-84
2021/01/04 01:30:06;;;;;;;89.42;41.28;;;;;;;0.23;76.87;96925.73;1734909;81;26329;-82
2021/01/04 01:33:14;;;;;;;88.52;40.75;;;;;;;0.25;76.84;96921.08;1710030;82;25869;-83
2021/01/04 01:36:20;;;;;;;91.28;41.95;;;;;;;0.28;76.82;96917.28;1713873;80;25935;-82
2021/01/04 01:39:14;;;;;;;88.58;39.50;;;;;;;0.21;76.76;96907.80;1728253;82;27598;-82
2021/01/04 01:42:22;;;;;;;78.80;37.03;;;;;;;0.24;76.83;96906.66;1734105;80;25807;-85
2021/01/04 01:45:06;;;;;;;75.90;36.77;;;;;;;0.24;76.83;96902.16;1710778;82;25830;-85
2021/01/04 01:47:57;;;;;;;87.10;40.75;;;;;;;0.30;76.87;96902.86;1737204;81;25801;-83
2021/01/04 01:50:46;;;;;;;89.42;42.75;;;;;;;0.23;76.72;96908.48;1754367;81;26359;-85
2021/01/04 01:54:04;;;;;;;99.25;42.75;;;;;;;0.21;76.78;96901.66;1755020;80;27630;-83
2021/01/04 01:56:58;;;;;;;97.57;44.20;;;;;;;0.24;76.79;96898.17;1740278;81;25884;-84
2021/01/04 01:59:43;;;;;;;94.83;42.95;;;;;;;0.26;76.74;96902.83;1754170;80;25661;-86
2021/01/04 02:02:21;;;;;;;88.92;43.28;;;;;;;0.25;76.67;96895.02;1728373;82;25776;-85
2021/01/04 02:05:18;;;;;;;83.45;39.48;;;;;;;0.20;76.57;96894.69;1757806;80;25762;-82
2021/01/04 02:10:44;;;;;;;97.33;43.15;;;;;;;0.26;76.66;96904.66;1845888;76;34871;-82
2021/01/04 02:13:26;;;;;;;107.58;42.38;;;;;;;0.20;76.67;96907.47;1833935;77;25754;-84
2021/01/04 02:16:11;;;;;;;98.25;42.83;;;;;;;0.22;76.71;96904.16;1820330;77;27546;-84
2021/01/04 02:19:09;;;;;;;96.78;41.85;;;;;;;0.19;76.67;96917.75;1818766;76;26004;-85
2021/01/04 02:22:00;;;;;;;92.97;39.63;;;;;;;0.15;76.68;96915.06;1819817;77;25718;-85
2021/01/04 02:24:28;;;;;;;91.63;37.75;;;;;;;0.14;76.82;96913.39;1833076;77;25784;-82
2021/01/04 02:27:10;;;;;;;90.85;37.67;;;;;;;0.20;76.91;96907.96;1830953;77;25846;-86
2021/01/04 02:29:37;;;;;;;96.87;39.70;;;;;;;0.24;76.94;96917.28;1817047;77;27417;-85
2021/01/04 02:32:08;;;;;;;100.25;41.73;;;;;;;0.25;76.89;96913.61;1818685;77;25749;-84
2021/01/04 02:34:46;;;;;;;99.90;42.55;;;;;;;0.19;76.86;96915.09;1788224;77;25723;-86
2021/01/04 02:37:16;;;;;;;114.67;49.05;;;;;;;0.17;76.90;96918.39;1828762;77;26497;-85
2021/01/04 02:39:57;;;;;;;118.80;49.65;;;;;;;0.22;77.03;96925.40;1838528;77;25900;-83
2021/01/04 02:42:39;;;;;;;111.22;46.20;;;;;;;0.17;76.98;96920.22;1825396;76;27489;-85
2021/01/04 02:45:23;;;;;;;97.72;44.10;;;;;;;0.19;77.05;96917.75;1823467;77;25805;-82
2021/01/04 02:48:02;;;;;;;95.67;40.23;;;;;;;0.23;77.07;96920.43;1819584;77;25706;-85
2021/01/04 02:51:02;;;;;;;109.20;43.50;;;;;;;0.27;77.04;96915.12;1818707;76;25777;-86
2021/01/04 02:53:50;;;;;;;115.85;47.03;;;;;;;0.29;77.03;96922.43;1818871;77;25353;-84
2021/01/04 02:56:55;;;;;;;110.52;44.60;;;;;;;0.21;76.97;96918.92;1817793;76;28936;-82
2021/01/04 02:59:43;;;;;;;119.47;48.05;;;;;;;0.09;77.03;96922.34;1818689;77;26214;-84
2021/01/04 03:02:32;;;;;;;134.90;51.48;;;;;;;0.00;77.20;96921.45;1822057;77;25647;-85
2021/01/04 03:04:59;;;;;;;153.30;59.80;;;;;;;0.04;77.33;96925.12;1822547;77;25845;-85
2021/01/04 03:07:30;;;;;;;125.20;52.25;;;;;;;0.06;77.42;96921.82;1836146;76;25739;-86
2021/01/04 03:10:01;;;;;;;112.32;45.43;;;;;;;0.10;77.45;96924.02;1813360;77;26802;-85
2021/01/04 03:12:36;;;;;;;70.93;31.07;;;;;;;0.14;77.43;96917.38;1809248;77;25739;-83
2021/01/04 03:15:21;;;;;;;96.87;43.87;;;;;;;0.19;77.42;96908.45;1803024;77;25729;-84
2021/01/04 03:18:20;;;;;;;92.00;40.03;;;;;;;0.23;77.43;96899.69;1810307;77;25785;-82
2021/01/04 03:20:47;;;;;;;85.60;38.85;;;;;;;0.17;77.30;96893.67;1813345;77;25659;-83
2021/01/04 03:23:15;;;;;;;89.60;39.80;;;;;;;0.05;77.29;96891.80;1815973;77;27472;-85
2021/01/04 03:25:51;;;;;;;85.15;39.53;;;;;;;-0.01;77.42;96889.79;1809645;77;25845;-84
2021/01/04 03:28:28;;;;;;;87.57;38.15;;;;;;;-0.02;77.54;96893.43;1809405;77;25360;-83
2021/01/04 03:30:57;;;;;;;88.33;40.38;;;;;;;-0.03;77.65;96899.23;1809545;77;25726;-87
2021/01/04 03:33:24;;;;;;;83.65;39.50;;;;;;;0.04;77.75;96904.72;1809638;77;25726;-84
2021/01/04 03:35:52;;;;;;;92.25;42.23;;;;;;;0.13;77.83;96901.11;1809629;77;27678;-85
2021/01/04 03:38:21;;;;;;;96.00;42.38;;;;;;;0.19;77.77;96911.11;1809534;77;25721;-84
2021/01/04 03:40:49;;;;;;;96.75;42.15;;;;;;;0.24;77.72;96911.45;1809316;77;25723;-86
2021/01/04 03:43:16;;;;;;;104.38;50.28;;;;;;;0.28;77.69;96917.28;1809325;77;25776;-86
2021/01/04 03:45:44;;;;;;;79.80;39.98;;;;;;;0.30;77.65;96920.61;1812203;77;25758;-83
2021/01/04 03:48:12;;;;;;;66.33;33.35;;;;;;;0.20;77.51;96916.76;1829473;77;27542;-84
2021/01/04 03:50:39;;;;;;;86.53;42.05;;;;;;;0.23;77.64;96918.27;1809478;77;26337;-83
2021/01/04 03:53:06;;;;;;;62.05;33.60;;;;;;;0.27;77.70;96916.45;1809605;77;25585;-84
2021/01/04 03:55:37;;;;;;;69.47;33.18;;;;;;;0.33;77.74;96923.79;1820704;77;26243;-82
2021/01/04 03:58:03;;;;;;;65.20;32.05;;;;;;;0.38;77.72;96923.78;1809879;77;26398;-84
2021/01/04 04:00:30;;;;;;;65.92;35.10;;;;;;;0.42;77.71;96915.84;1809552;77;27548;-85
2021/01/04 04:02:57;;;;;;;65.92;33.60;;;;;;;0.49;77.68;96911.05;1832732;77;26109;-83
2021/01/04 04:05:25;;;;;;;65.10;31.82;;;;;;;0.47;77.58;96909.57;1820387;77;25568;-83
2021/01/04 04:07:52;;;;;;;60.43;30.68;;;;;;;0.40;77.48;96919.98;1814026;77;25691;-82
2021/01/04 04:10:21;;;;;;;60.90;29.65;;;;;;;0.40;77.57;96906.70;1815158;76;26277;-84
2021/01/04 04:12:49;;;;;;;58.55;29.67;;;;;;;0.44;77.60;96902.75;1818637;77;27525;-85
2021/01/04 04:15:20;;;;;;;58.90;31.02;;;;;;;0.47;77.52;96905.09;1818647;77;26113;-84
2021/01/04 04:17:48;;;;;;;64.72;31.05;;;;;;;0.48;77.47;96900.62;1841592;76;25718;-85
2021/01/04 04:20:26;;;;;;;75.25;33.70;;;;;;;0.49;77.44;96900.42;1842174;77;25774;-85
2021/01/04 04:22:56;;;;;;;67.22;33.83;;;;;;;0.52;77.42;96901.94;1818751;77;26380;-83
2021/01/04 04:25:26;;;;;;;62.75;32.15;;;;;;;0.46;77.23;96902.59;1822513;76;27548;-84
2021/01/04 04:27:55;;;;;;;63.85;33.45;;;;;;;0.41;77.11;96902.23;1837275;77;25961;-83
2021/01/04 04:30:25;;;;;;;64.35;31.65;;;;;;;0.36;77.11;96904.06;1818692;76;25292;-85
2021/01/04 04:32:56;;;;;;;63.90;31.77;;;;;;;0.25;77.05;96900.33;1818820;77;25778;-84
2021/01/04 04:35:26;;;;;;;55.70;29.42;;;;;;;0.21;77.09;96903.83;1818727;76;25691;-83
2021/01/04 04:37:54;;;;;;;58.60;31.00;;;;;;;0.18;77.12;96912.59;1818710;77;27540;-84
2021/01/04 04:43:16;;;;;;;55.33;27.32;;;;;;;0.21;77.09;96906.97;1848962;76;35265;-84
2021/01/04 04:45:44;;;;;;;53.52;27.25;;;;;;;0.12;77.03;96912.72;1787702;78;25880;-82
2021/01/04 04:48:33;;;;;;;53.23;27.87;;;;;;;0.11;76.93;96917.72;1803639;78;28686;-83
2021/01/04 04:51:11;;;;;;;51.58;27.67;;;;;;;0.09;76.88;96917.53;1814829;78;25693;-83
2021/01/04 04:54:13;;;;;;;49.33;25.72;;;;;;;0.05;76.82;96915.68;1812411;78;25748;-80
2021/01/04 04:57:06;;;;;;;49.38;25.92;;;;;;;0.02;76.79;96915.98;1813443;77;26266;-81
2021/01/04 05:00:10;;;;;;;51.70;24.60;;;;;;;-0.05;76.76;96924.25;1811644;78;25725;-84
2021/01/04 05:03:13;;;;;;;57.15;29.23;;;;;;;-0.13;76.79;96925.54;1811446;77;27555;-82
2021/01/04 05:05:49;;;;;;;66.10;32.70;;;;;;;-0.17;76.88;96927.66;1819767;77;35270;-83
2021/01/04 05:08:47;;;;;;;76.12;39.92;;;;;;;-0.21;76.93;96926.80;1804201;77;25781;-80
2021/01/04 05:11:19;;;;;;;85.67;41.20;;;;;;;-0.26;77.01;96917.16;1795428;78;26177;-83
2021/01/04 05:13:51;;;;;;;103.65;49.67;;;;;;;-0.25;77.04;96919.66;1753715;80;25752;-84
2021/01/04 05:16:23;;;;;;;108.32;54.08;;;;;;;-0.26;76.87;96914.52;1809464;77;26344;-84
2021/01/04 05:19:22;;;;;;;97.05;47.03;;;;;;;-0.31;76.71;96916.78;1755942;78;26147;-81
2021/01/04 05:22:45;;;;;;;97.35;45.35;;;;;;;-0.37;76.64;96913.79;1818031;78;25750;-82
2021/01/04 05:25:16;;;;;;;;;;;;;;;-0.43;76.61;96913.56;1805244;78;25834;-84
2021/01/04 05:28:15;;;;;;;102.70;46.00;;;;;;;-0.48;76.60;96910.03;1792479;78;26171;-85
2021/01/04 05:31:03;;;;;;;71.85;36.17;;;;;;;-0.50;76.63;96912.03;1781960;77;28433;-84
2021/01/04 05:33:48;;;;;;;86.87;38.63;;;;;;;-0.56;76.58;96907.33;1808424;77;25710;-82
2021/01/04 05:36:51;;;;;;;74.00;36.40;;;;;;;-0.62;76.47;96909.29;1777208;78;25794;-83
2021/01/04 05:39:48;;;;;;;58.08;30.10;;;;;;;-0.63;76.53;96919.55;1797717;78;25704;-85
2021/01/04 05:42:30;;;;;;;60.12;30.55;;;;;;;-0.65;76.50;96918.87;1812322;78;26662;-83
2021/01/04 05:45:03;;;;;;;40.90;21.67;;;;;;;-0.70;76.49;96911.02;1816822;78;27409;-83
2021/01/04 05:47:37;;;;;;;54.95;28.85;;;;;;;-0.76;76.44;96904.53;1804429;78;25837;-85
2021/01/04 05:50:25;;;;;;;58.78;29.32;;;;;;;-0.79;76.40;96903.02;1793239;78;25763;-81
2021/01/04 05:52:55;;;;;;;58.33;30.50;;;;;;;-0.83;76.35;96900.81;1798422;78;25993;-83
2021/01/04 05:55:24;;;;;;;76.85;35.17;;;;;;;-0.86;76.37;96911.73;1803392;78;25821;-82
2021/01/04 05:57:55;;;;;;;75.67;36.05;;;;;;;-0.86;76.44;96901.98;1809823;78;27553;-83
2021/01/04 06:00:32;;;;;;;76.65;37.08;;;;;;;-0.85;76.43;96908.11;1804524;78;25315;-86
2021/01/04 06:03:20;;;;;;;76.15;36.95;;;;;;;-0.90;76.38;96897.13;1811416;78;25806;-86
2021/01/04 06:05:50;;;;;;;74.95;37.83;;;;;;;-0.99;76.38;96905.50;1815587;78;25773;-85
2021/01/04 06:08:27;;;;;;;78.50;37.08;;;;;;;-1.07;76.54;96905.89;1804530;78;26642;-85
2021/01/04 06:11:11;;;;;;;74.40;37.63;;;;;;;-1.11;76.57;96901.41;1792631;78;27503;-82
2021/01/04 06:13:44;;;;;;;81.35;38.28;;;;;;;-1.14;76.64;96907.84;1809403;78;25711;-84
2021/01/04 06:16:16;;;;;;;87.72;42.33;;;;;;;-1.14;76.63;96913.63;1806109;78;25295;-85
2021/01/04 06:18:54;;;;;;;81.72;41.53;;;;;;;-1.13;76.69;96913.48;1805212;78;28255;-85
2021/01/04 06:21:27;;;;;;;77.22;38.58;;;;;;;-1.13;76.73;96921.42;1769899;80;26490;-85
2021/01/04 06:23:58;;;;;;;78.22;36.17;;;;;;;-1.16;76.68;96919.07;1792794;78;27544;-86
2021/01/04 06:26:25;;;;;;;55.73;26.23;;;;;;;-1.17;76.64;96920.05;1799916;77;26230;-83
2021/01/04 06:29:07;;;;;;;89.60;39.60;;;;;;;-1.18;76.65;96924.17;1822245;78;26106;-85
2021/01/04 06:31:44;;;;;;;81.78;39.92;;;;;;;-1.18;76.68;96922.84;1807196;78;26071;-85
2021/01/04 06:34:35;;;;;;;87.53;40.73;;;;;;;-1.15;76.78;96931.33;1809728;77;26253;-84
2021/01/04 06:37:16;;;;;;;82.15;39.65;;;;;;;-1.17;76.64;96935.94;1824894;77;27492;-85
2021/01/04 06:39:44;;;;;;;77.47;37.27;;;;;;;-1.21;76.60;96941.19;1800543;78;25676;-85
2021/01/04 06:42:19;;;;;;;81.40;39.45;;;;;;;-1.23;76.56;96945.83;1792561;78;25774;-84
2021/01/04 06:47:53;;;;;;;92.10;44.10;;;;;;;-1.25;76.38;96948.27;1872860;76;35072;-87
2021/01/04 06:50:45;;;;;;;88.17;43.17;;;;;;;-1.35;76.50;96955.45;1819738;76;25650;-86
2021/01/04 06:53:30;;;;;;;65.55;32.10;;;;;;;-1.35;76.68;96952.80;1846406;77;28522;-83
2021/01/04 06:56:24;;;;;;;80.60;40.38;;;;;;;-1.31;76.82;96960.28;1848457;77;25781;-83
2021/01/04 06:59:24;;;;;;;74.12;37.17;;;;;;;-1.29;76.84;96953.02;1723614;80;25768;-81
2021/01/04 07:02:24;;;;;;;74.42;36.58;;;;;;;-1.29;76.82;96945.57;1724641;82;25716;-81
2021/01/04 07:05:28;;;;;;;88.35;37.90;;;;;;;-1.26;76.90;96946.60;1806613;77;25304;-81
2021/01/04 07:08:16;;;;;;;77.22;37.13;;;;;;;-1.21;77.02;96951.78;1840742;77;27423;-82
2021/01/04 07:11:17;;;;;;;83.72;39.25;;;;;;;-1.19;77.10;96945.84;1846117;77;26117;-81
2021/01/04 07:14:17;;;;;;;92.65;42.53;;;;;;;-1.16;77.14;96946.88;1836396;77;25776;-81
2021/01/04 07:17:10;;;;;;;90.80;43.92;;;;;;;-1.15;77.14;96941.92;1818847;77;25787;-81
2021/01/04 07:20:14;;;;;;;112.22;46.73;;;;;;;-1.11;77.15;96949.92;1800669;77;26195;-82
2021/01/04 07:23:12;;;;;;;129.27;55.28;;;;;;;-1.14;77.09;96961.30;1811151;77;28466;-81
2021/01/04 07:26:00;;;;;;;141.82;59.10;;;;;;;-1.12;77.16;96962.83;1818770;76;25703;-82
2021/01/04 07:29:04;;;;;;;129.85;56.58;;;;;;;-1.10;77.17;96964.00;1818857;77;25847;-81
2021/01/04 07:31:39;;;;;;;161.25;70.55;;;;;;;-1.06;77.21;96960.05;1818571;77;25734;-81
2021/01/04 07:34:29;;;;;;;158.18;69.07;;;;;;;-1.07;77.15;96968.14;1819006;77;25806;-84
2021/01/04 07:37:27;;;;;;;138.40;63.00;;;;;;;-1.10;77.16;96960.03;1819190;77;27493;-82
2021/01/04 07:40:06;;;;;;;119.08;57.40;;;;;;;-1.03;77.29;96968.20;1848347;77;26005;-82
2021/01/04 07:43:00;;;;;;;132.40;61.85;;;;;;;-0.99;77.34;96969.08;1851817;76;25714;-82
2021/01/04 07:45:33;;;;;;;129.95;60.00;;;;;;;-0.93;77.37;96970.28;1844112;77;25810;-83
2021/01/04 07:48:52;;;;;;;131.37;59.48;;;;;;;-0.87;77.41;96969.69;1834746;77;25749;-82
2021/01/04 07:51:42;;;;;;;162.57;72.08;;;;;;;-0.83;77.44;96971.87;1843356;77;27469;-82
2021/01/04 07:54:37;;;;;;;164.30;70.37;;;;;;;-0.79;77.46;96975.06;1832452;77;25663;-84
2021/01/04 07:57:16;;;;;;;228.12;99.30;;;;;;;-0.73;77.51;96975.80;1843257;77;25746;-84
2021/01/04 08:00:25;;;;;;;222.25;103.40;;;;;;;-0.64;77.62;96965.59;1793485;77;25788;-85
2021/01/04 08:03:18;;;;;;;206.40;96.45;;;;;;;-0.54;77.63;96961.04;1805394;77;25905;-85
2021/01/04 08:06:00;;;;;;;175.62;83.20;;;;;;;-0.52;77.58;96972.82;1802517;77;27481;-86
2021/01/04 08:09:01;;;;;;;153.87;78.30;;;;;;;-0.52;77.64;96982.10;1809388;77;25767;-85
2021/01/04 08:11:43;;;;;;;142.82;74.65;;;;;;;-0.47;77.65;96980.64;1816985;77;25668;-86
2021/01/04 08:14:34;;;;;;;149.23;75.83;;;;;;;-0.50;77.59;96980.97;1821711;77;25739;-85
2021/01/04 08:17:15;;;;;;;150.27;77.97;;;;;;;-0.39;77.76;96979.40;1822807;77;25688;-86
2021/01/04 08:19:45;;;;;;;161.05;84.20;;;;;;;-0.24;77.84;96980.17;1815780;77;27492;-85
2021/01/04 08:22:27;;;;;;;151.25;78.78;;;;;;;-0.18;77.69;96979.55;1809566;77;25778;-85
2021/01/04 08:28:04;;;;;;;140.93;84.53;;;;;;;0.20;77.80;96965.03;1857005;76;32301;-85
2021/01/04 08:30:45;;;;;;;126.18;71.12;;;;;;;0.40;77.55;96972.25;1824590;77;25845;-85
2021/01/04 08:33:30;;;;;;;110.97;60.10;;;;;;;0.58;77.54;96982.31;1818995;77;28469;-86
2021/01/04 08:35:58;;;;;;;106.67;57.10;;;;;;;0.78;77.58;96977.06;1833279;77;25793;-82
2021/01/04 08:38:33;;;;;;;110.28;56.65;;;;;;;0.98;77.47;96972.30;1818810;76;25758;-82
2021/01/04 08:41:18;;;;;;;110.05;55.83;;;;;;;1.09;77.38;96974.16;1818797;77;25722;-82
2021/01/04 08:43:49;;;;;;;124.30;60.30;;;;;;;1.28;77.38;96969.06;1818974;77;25671;-84
2021/01/04 08:46:30;;;;;;;156.75;72.80;;;;;;;1.51;77.36;96959.94;1825848;77;27558;-82
2021/01/04 08:49:27;;;;;;;149.07;69.60;;;;;;;1.74;77.33;96955.61;1825282;77;25795;-83
2021/01/04 08:51:56;;;;;;;145.25;64.42;;;;;;;1.97;77.19;96957.08;1830799;77;25757;-84
2021/01/04 08:54:30;;;;;;;117.33;58.95;;;;;;;2.31;77.10;96948.84;1822154;76;25766;-85
2021/01/04 08:57:15;;;;;;;113.00;56.35;;;;;;;2.61;76.98;96939.76;1819676;77;25924;-85
2021/01/04 08:59:57;;;;;;;97.33;49.93;;;;;;;2.99;76.84;96946.08;1851154;76;27502;-84
2021/01/04 09:02:41;;;;;;;96.67;46.73;;;;;;;3.32;76.46;96944.03;1840024;77;25761;-83
2021/01/04 09:05:29;;;;;;;74.85;36.80;;;;;;;3.60;76.12;96934.48;1848080;77;25789;-85
2021/01/04 09:07:58;;;;;;;48.68;25.85;;;;;;;3.91;75.99;96928.53;1848001;77;25957;-83
2021/01/04 09:10:39;;;;;;;66.95;35.30;;;;;;;4.24;75.58;96920.18;1851128;77;26279;-84
2021/01/04 09:13:32;;;;;;;89.13;47.73;;;;;;;4.42;75.24;96920.66;1850814;76;27493;-85
2021/01/04 09:16:14;;;;;;;80.95;44.33;;;;;;;4.51;74.83;96926.23;1850837;77;25325;-84
2021/01/04 09:18:48;;;;;;;61.70;34.33;;;;;;;4.68;74.76;96925.03;1822711;77;25677;-84
2021/01/04 09:21:39;;;;;;;61.75;37.58;;;;;;;4.85;74.42;96918.11;1822834;76;26122;-85
2021/01/04 09:24:24;;;;;;;63.80;35.95;;;;;;;4.98;74.16;96915.60;1843703;77;25817;-85
2021/01/04 09:27:00;;;;;;;57.13;34.88;;;;;;;5.23;74.13;96912.07;1802788;77;27488;-83
2021/01/04 09:29:38;;;;;;;47.73;29.18;;;;;;;5.35;73.70;96907.88;1825422;77;26055;-84
2021/01/04 09:32:13;;;;;;;36.08;22.48;;;;;;;5.57;73.80;96895.31;1810150;77;25703;-84
2021/01/04 09:34:40;;;;;;;32.20;20.25;;;;;;;5.79;73.32;96900.98;1810102;77;26459;-85
2021/01/04 09:37:12;;;;;;;37.45;21.97;;;;;;;5.89;72.96;96901.51;1809940;77;26212;-84
2021/01/04 09:39:42;;;;;;;46.37;28.00;;;;;;;6.07;72.94;96910.38;1814124;77;28392;-84
2021/01/04 09:42:15;;;;;;;55.12;29.85;;;;;;;6.35;72.75;96913.06;1835682;77;25789;-84
2021/01/04 09:44:42;;;;;;;56.58;31.60;;;;;;;6.49;71.99;96920.99;1834495;77;25650;-84
2021/01/04 09:47:30;;;;;;;62.30;35.05;;;;;;;6.47;71.63;96916.84;1839731;77;27644;-84
2021/01/04 09:50:03;;;;;;;60.20;34.95;;;;;;;6.53;71.38;96912.02;1803966;77;25689;-84
2021/01/04 09:52:38;;;;;;;61.42;36.63;;;;;;;6.74;71.19;96911.95;1831746;77;27483;-84
2021/01/04 09:55:10;;;;;;;71.82;39.73;;;;;;;6.77;70.93;96910.18;1818822;77;26237;-84
2021/01/04 09:57:42;;;;;;;58.68;34.50;;;;;;;6.99;71.13;96899.36;1822504;77;25735;-84
2021/01/04 10:00:24;;;;;;;55.10;32.53;;;;;;;7.25;70.95;96902.09;1821206;77;34897;-84
2021/01/04 10:03:09;;;;;;;48.40;29.30;;;;;;;7.48;70.45;96903.09;1813636;77;25712;-84
2021/01/04 10:05:41;;;;;;;43.78;27.13;;;;;;;7.52;69.95;96896.27;1813401;77;27473;-84
2021/01/04 10:08:22;;;;;;;45.98;27.77;;;;;;;7.52;69.44;96894.41;1816430;77;25959;-83
2021/01/04 10:10:58;;;;;;;44.05;25.05;;;;;;;7.75;69.83;96895.88;1824778;77;25740;-84
2021/01/04 10:13:28;;;;;;;42.10;25.95;;;;;;;8.08;69.55;96898.06;1812424;77;26241;-84
2021/01/04 10:15:58;;;;;;;44.18;27.55;;;;;;;8.37;69.34;96889.25;1827385;77;25315;-83
2021/01/04 10:18:54;;;;;;;42.88;26.20;;;;;;;8.70;69.32;96888.64;1838600;77;28456;-83
2021/01/04 10:21:31;;;;;;;40.73;25.02;;;;;;;9.03;68.90;96878.59;1815860;77;25819;-83
2021/01/04 10:24:03;;;;;;;45.28;28.75;;;;;;;9.29;68.20;96881.68;1818150;77;25763;-83
2021/01/04 10:26:41;;;;;;;51.00;31.23;;;;;;;9.51;67.97;96874.08;1823629;77;26133;-82
2021/01/04 10:29:12;;;;;;;57.73;35.78;;;;;;;9.72;67.75;96865.62;1832977;77;25797;-83
2021/01/04 10:31:40;;;;;;;69.27;46.42;;;;;;;9.77;67.03;96861.46;1809752;77;27277;-83
2021/01/04 10:34:17;;;;;;;56.68;34.70;;;;;;;9.60;66.42;96860.64;1832843;77;25733;-83
2021/01/04 10:37:02;;;;;;;59.27;38.90;;;;;;;9.41;66.12;96867.00;1809648;77;26330;-83
2021/01/04 10:39:35;;;;;;;105.37;63.42;;;;;;;9.29;66.05;96859.30;1824878;77;26341;-83
2021/01/04 10:42:10;;;;;;;65.97;42.13;;;;;;;9.52;66.13;96858.22;1808842;77;25776;-83
2021/01/04 10:44:39;;;;;;;56.42;35.52;;;;;;;9.87;65.99;96855.05;1794749;77;26911;-83
2021/01/04 10:47:27;;;;;;;56.48;34.03;;;;;;;10.23;65.57;96851.64;1809495;77;26125;-84
2021/01/04 10:50:08;;;;;;;38.90;25.25;;;;;;;10.45;64.69;96842.89;1809636;77;26311;-84
2021/01/04 10:52:36;;;;;;;37.20;24.05;;;;;;;10.31;64.27;96844.60;1823069;77;26009;-84
2021/01/04 10:55:04;;;;;;;43.78;27.90;;;;;;;10.34;63.56;96839.59;1809560;77;25708;-85
2021/01/04 10:57:42;;;;;;;47.50;30.00;;;;;;;10.33;63.40;96832.55;1809467;77;28453;-84
2021/01/04 11:00:23;;;;;;;46.28;28.65;;;;;;;10.40;63.68;96836.51;1823340;77;25922;-84
2021/01/04 11:02:54;;;;;;;50.33;28.20;;;;;;;10.58;63.83;96841.92;1814849;77;25795;-85
2021/01/04 11:05:36;;;;;;;42.45;26.87;;;;;;;10.96;63.73;96829.53;1809531;77;25777;-84
2021/01/04 11:08:27;;;;;;;38.57;24.23;;;;;;;11.23;63.20;96830.53;1810063;77;26061;-85
2021/01/04 11:11:08;;;;;;;44.05;25.72;;;;;;;11.42;62.84;96826.70;1842587;77;28495;-85
2021/01/04 11:13:36;;;;;;;42.30;24.27;;;;;;;11.22;61.57;96824.30;1833762;77;25719;-84
2021/01/04 11:16:11;;;;;;;37.90;23.27;;;;;;;11.18;61.80;96827.98;1837563;77;25763;-84
2021/01/04 11:18:50;;;;;;;36.77;26.55;;;;;;;11.35;61.94;96827.34;1835324;77;25813;-84
2021/01/04 11:21:20;;;;;;;35.63;23.62;;;;;;;11.67;61.84;96833.30;1841841;77;26248;-85
2021/01/04 11:23:48;;;;;;;34.55;21.12;;;;;;;11.97;61.59;96829.17;1842628;77;27268;-84
2021/01/04 11:26:15;;;;;;;32.28;21.95;;;;;;;12.17;60.89;96835.09;1842472;77;26119;-84
2021/01/04 11:28:43;;;;;;;29.90;18.90;;;;;;;12.11;59.85;96833.31;1815444;78;25818;-85
2021/01/04 11:31:10;;;;;;;31.65;17.95;;;;;;;11.86;59.80;96828.94;1802800;78;25628;-85
2021/01/04 11:33:38;;;;;;;26.73;18.00;;;;;;;11.85;59.93;96831.34;1806465;78;26013;-84
2021/01/04 11:36:06;;;;;;;21.17;15.83;;;;;;;12.03;59.86;96829.61;1779594;78;27482;-85
2021/01/04 11:38:33;;;;;;;17.77;12.30;;;;;;;11.98;58.88;96813.25;1779870;78;25789;-85
2021/01/04 11:41:01;;;;;;;20.68;14.25;;;;;;;11.76;59.03;96820.58;1805541;78;25723;-85
2021/01/04 11:43:28;;;;;;;21.80;14.38;;;;;;;11.60;58.48;96823.91;1774233;78;26561;-85
2021/01/04 11:45:56;;;;;;;20.45;14.07;;;;;;;11.65;59.15;96813.24;1784841;78;25759;-85
2021/01/04 11:48:24;;;;;;;18.37;12.60;;;;;;;11.52;58.21;96812.92;1783798;79;27698;-85
2021/01/04 11:50:52;;;;;;;21.60;13.90;;;;;;;11.43;58.82;96813.49;1806322;78;25654;-85
2021/01/04 11:53:19;;;;;;;21.80;13.95;;;;;;;11.68;58.97;96810.08;1775969;79;25699;-85
2021/01/04 11:55:47;;;;;;;20.50;13.85;;;;;;;11.83;58.88;96803.70;1782021;78;25789;-84
2021/01/04 11:58:15;;;;;;;21.48;14.65;;;;;;;12.02;58.50;96793.63;1777323;78;25791;-85
2021/01/04 12:00:42;;;;;;;20.43;14.58;;;;;;;12.22;58.42;96793.25;1777683;78;27482;-84
2021/01/04 12:03:11;;;;;;;19.45;12.50;;;;;;;12.32;58.31;96793.47;1805377;78;25809;-84
2021/01/04 12:05:38;;;;;;;19.80;13.00;;;;;;;12.48;57.51;96791.92;1802577;78;25752;-85
2021/01/04 12:08:06;;;;;;;24.72;14.70;;;;;;;12.43;57.50;96795.37;1793256;78;26240;-85
2021/01/04 12:10:33;;;;;;;28.02;18.25;;;;;;;12.39;57.30;96798.77;1797739;78;25721;-85
2021/01/04 12:13:01;;;;;;;31.30;19.27;;;;;;;12.41;57.33;96806.95;1788522;78;28418;-84
2021/01/04 12:15:29;;;;;;;29.18;19.48;;;;;;;12.35;57.07;96802.48;1815369;78;25742;-85
2021/01/04 12:17:57;;;;;;;35.70;22.62;;;;;;;12.29;57.18;96803.44;1778598;78;25743;-85
2021/01/04 12:20:24;;;;;;;30.65;20.72;;;;;;;12.25;57.09;96809.84;1774316;78;25738;-84
2021/01/04 12:22:52;;;;;;;33.10;21.65;;;;;;;12.23;57.12;96813.84;1783908;79;25765;-84
2021/01/04 12:25:19;;;;;;;33.10;21.52;;;;;;;12.29;57.11;96809.38;1783372;78;28655;-85
2021/01/04 12:27:47;;;;;;;27.37;18.15;;;;;;;12.29;56.88;96807.50;1807198;77;25873;-84
2021/01/04 12:30:15;;;;;;;33.48;22.80;;;;;;;12.32;56.37;96811.62;1836945;77;25879;-84
2021/01/04 12:32:42;;;;;;;27.17;18.15;;;;;;;12.20;56.65;96809.72;1838999;77;26157;-84